Time;durP1;ratioP1;P1;durP2;ratioP2;P2;SDS_P1;SDS_P2;PMS_P1;PMS_P2;Temp;Humidity;BMP_temperature;BMP_pressure;BME280_temperature;BME280_humidity;BME280_pressure;Samples;Min_cycle;Max_cycle;Signal;HPM_P1;HPM_P2
2020/12/07 00:01:11;;;;;;;35.55;19.05;;;;;;;8.03;76.75;99626.81;5103323;28;20594;-73
2020/12/07 00:03:36;;;;;;;35.17;18.13;;;;;;;8.03;77.15;99597.50;5104475;28;20074;-71
2020/12/07 00:06:02;;;;;;;38.28;18.63;;;;;;;8.03;76.92;99606.13;5104745;28;20032;-72
2020/12/07 00:08:27;;;;;;;37.05;18.45;;;;;;;7.89;77.27;99580.41;5104977;28;20169;-71
2020/12/07 00:10:53;;;;;;;32.47;17.90;;;;;;;7.91;77.42;99583.84;5103287;28;20020;-70
2020/12/07 00:13:18;;;;;;;40.28;20.77;;;;;;;8.05;76.81;99593.19;5104661;28;20061;-71
2020/12/07 00:15:44;;;;;;;44.17;24.33;;;;;;;7.81;77.91;99606.34;5104766;28;20024;-71
2020/12/07 00:18:10;;;;;;;28.50;12.70;;;;;;;8.09;76.86;99575.91;5104342;28;20027;-69
2020/12/07 00:20:36;;;;;;;39.00;18.48;;;;;;;8.36;75.33;99587.66;5104265;28;20045;-69
2020/12/07 00:23:01;;;;;;;36.65;17.05;;;;;;;8.02;76.58;99599.22;5104498;28;20032;-71
2020/12/07 00:25:27;;;;;;;31.17;16.85;;;;;;;8.15;76.24;99586.16;5102731;28;20030;-70
2020/12/07 00:27:52;;;;;;;31.10;16.63;;;;;;;8.22;75.94;99592.13;5104291;28;20040;-70
2020/12/07 00:30:18;;;;;;;38.83;20.83;;;;;;;7.97;76.79;99633.78;5103908;28;20336;-73
2020/12/07 00:32:43;;;;;;;43.95;23.48;;;;;;;7.86;77.40;99579.63;5103905;28;20024;-69
2020/12/07 00:35:08;;;;;;;39.28;20.98;;;;;;;7.86;77.38;99579.63;5104003;28;20031;-71
2020/12/07 00:37:34;;;;;;;30.98;17.30;;;;;;;8.06;76.49;99584.56;5104047;28;20028;-72
2020/12/07 00:39:59;;;;;;;42.08;21.23;;;;;;;8.12;76.46;99571.56;5103797;28;20028;-70
2020/12/07 00:42:24;;;;;;;38.28;20.23;;;;;;;7.83;77.40;99558.97;5104270;28;20212;-70
2020/12/07 00:44:50;;;;;;;32.58;16.70;;;;;;;7.88;77.53;99576.13;5103940;28;20649;-68
2020/12/07 00:47:15;;;;;;;25.10;12.43;;;;;;;7.97;76.90;99569.16;5102494;28;20058;-70
2020/12/07 00:49:41;;;;;;;25.48;13.05;;;;;;;8.05;76.60;99564.75;5103553;28;20371;-70
2020/12/07 00:52:07;;;;;;;33.15;15.68;;;;;;;8.05;76.56;99568.19;5104120;28;20017;-70
2020/12/07 00:54:33;;;;;;;31.52;14.35;;;;;;;7.99;76.67;99560.50;5103652;28;20028;-70
2020/12/07 00:57:00;;;;;;;39.10;18.58;;;;;;;7.76;77.55;99558.19;5103758;28;20023;-70
2020/12/07 00:59:26;;;;;;;28.63;14.82;;;;;;;7.79;77.38;99564.19;5103857;28;20452;-71
2020/12/07 01:01:53;;;;;;;38.65;21.10;;;;;;;7.91;76.98;99577.81;5103636;28;20070;-71
2020/12/07 01:04:19;;;;;;;39.58;20.83;;;;;;;7.85;77.54;99552.03;5104237;28;20046;-71
2020/12/07 01:06:45;;;;;;;35.38;17.05;;;;;;;7.75;78.00;99553.84;5103869;28;20024;-71
2020/12/07 01:09:13;;;;;;;34.10;18.92;;;;;;;7.83;77.62;99556.38;5103903;28;20464;-71
2020/12/07 01:11:42;;;;;;;39.03;15.95;;;;;;;7.78;78.21;99548.69;5103884;28;20088;-70
2020/12/07 01:14:11;;;;;;;35.08;19.70;;;;;;;7.78;77.95;99559.03;5104231;28;20031;-70
2020/12/07 01:16:37;;;;;;;29.52;16.63;;;;;;;7.77;77.99;99575.38;5103344;28;20042;-70
2020/12/07 01:19:07;;;;;;;32.10;16.95;;;;;;;7.78;78.01;99564.19;5103163;28;20328;-69
2020/12/07 01:21:33;;;;;;;35.42;19.80;;;;;;;7.68;78.33;99546.19;5103507;28;20057;-70
2020/12/07 01:23:59;;;;;;;18.65;10.50;;;;;;;7.99;77.23;99544.13;5103507;28;20035;-68
2020/12/07 01:26:25;;;;;;;36.15;20.38;;;;;;;7.79;77.79;99543.50;5103495;28;20186;-70
2020/12/07 01:28:50;;;;;;;42.88;21.13;;;;;;;7.63;78.27;99553.13;5103174;28;20065;-70
2020/12/07 01:31:17;;;;;;;34.42;16.58;;;;;;;7.81;77.79;99552.06;5103220;28;20028;-71
2020/12/07 01:33:43;;;;;;;31.08;17.73;;;;;;;7.81;77.73;99556.41;5103155;28;20054;-70
2020/12/07 01:36:08;;;;;;;39.35;21.15;;;;;;;7.81;77.54;99546.06;5103323;28;20024;-69
2020/12/07 01:38:34;;;;;;;37.72;20.67;;;;;;;7.64;78.03;99533.31;5103138;28;20050;-70
2020/12/07 01:40:59;;;;;;;40.83;22.05;;;;;;;7.81;77.55;99551.25;5103156;28;20111;-70
2020/12/07 01:43:24;;;;;;;23.10;14.35;;;;;;;7.72;78.40;99535.81;5103137;28;20455;-68
2020/12/07 01:45:50;;;;;;;34.97;18.02;;;;;;;7.70;78.12;99535.81;5103468;28;20048;-70
2020/12/07 01:48:15;;;;;;;33.65;19.67;;;;;;;7.72;77.96;99531.50;5102825;28;20488;-69
2020/12/07 01:50:41;;;;;;;35.08;19.42;;;;;;;7.80;77.65;99539.16;5103135;28;20087;-71
2020/12/07 01:53:08;;;;;;;32.72;17.02;;;;;;;7.85;77.45;99523.59;5103362;28;20046;-70
2020/12/07 01:55:34;;;;;;;36.03;18.13;;;;;;;7.68;78.00;99532.41;5103410;28;20106;-71
2020/12/07 01:58:00;;;;;;;27.75;14.25;;;;;;;7.79;77.84;99527.13;5103214;28;20035;-69
2020/12/07 02:00:25;;;;;;;23.60;11.38;;;;;;;7.93;76.64;99517.50;5102781;28;20103;-69
2020/12/07 02:02:51;;;;;;;22.85;11.02;;;;;;;7.80;77.59;99524.53;5103480;28;20046;-68
2020/12/07 02:05:18;;;;;;;22.15;12.85;;;;;;;7.66;78.05;99522.09;5103272;28;20028;-69
2020/12/07 02:07:43;;;;;;;35.70;19.13;;;;;;;7.65;78.02;99529.88;5103528;28;20110;-70
2020/12/07 02:10:09;;;;;;;28.20;14.65;;;;;;;7.62;78.04;99517.00;5103297;28;20051;-70
2020/12/07 02:12:34;;;;;;;32.45;17.77;;;;;;;7.60;77.88;99514.41;5103345;28;20031;-70
2020/12/07 02:15:00;;;;;;;33.85;16.17;;;;;;;7.60;78.08;99510.97;5103313;28;20028;-70
2020/12/07 02:17:25;;;;;;;29.98;16.35;;;;;;;7.65;77.79;99520.38;5103576;28;20023;-73
2020/12/07 02:19:50;;;;;;;29.20;14.90;;;;;;;7.65;77.76;99519.53;5101660;28;20028;-70
2020/12/07 02:22:16;;;;;;;26.08;14.45;;;;;;;7.62;77.83;99504.06;5103234;28;20061;-69
2020/12/07 02:24:41;;;;;;;25.45;12.75;;;;;;;7.61;77.89;99521.28;5103469;28;20021;-70
2020/12/07 02:27:08;;;;;;;24.88;11.82;;;;;;;7.77;77.24;99508.19;5103171;28;20016;-70
2020/12/07 02:29:34;;;;;;;34.33;18.23;;;;;;;7.46;78.36;99518.88;5105503;28;20016;-71
2020/12/07 02:32:10;;;;;;;32.30;16.23;;;;;;;7.53;77.94;99517.94;5107010;28;20095;-71
2020/12/07 02:34:35;;;;;;;27.20;12.80;;;;;;;7.60;77.72;99521.31;5106921;28;20026;-70
2020/12/07 02:37:00;;;;;;;20.30;11.63;;;;;;;7.59;77.87;99520.44;5105672;28;20051;-69
2020/12/07 02:39:26;;;;;;;28.38;14.85;;;;;;;7.63;77.36;99511.81;5106707;28;20035;-68
2020/12/07 02:41:51;;;;;;;21.88;11.65;;;;;;;7.70;77.30;99533.25;5106956;28;20049;-69
2020/12/07 02:44:16;;;;;;;24.30;12.32;;;;;;;7.75;77.30;99499.59;5105458;28;20081;-68
2020/12/07 02:46:42;;;;;;;28.50;15.07;;;;;;;7.54;77.71;99501.56;5106663;28;20037;-69
2020/12/07 02:49:07;;;;;;;28.63;17.42;;;;;;;7.55;78.01;99511.03;5106553;28;20020;-71
2020/12/07 02:51:32;;;;;;;28.27;16.52;;;;;;;7.76;76.96;99512.53;5106617;28;20039;-71
2020/12/07 02:53:58;;;;;;;28.42;15.82;;;;;;;7.47;77.95;99518.84;5106729;28;20081;-69
2020/12/07 02:56:23;;;;;;;31.75;16.67;;;;;;;7.42;78.16;99521.47;5106551;28;20031;-70
2020/12/07 02:58:48;;;;;;;19.58;11.48;;;;;;;7.57;77.87;99501.53;5106347;28;20020;-68
2020/12/07 03:01:14;;;;;;;38.92;20.48;;;;;;;7.56;77.69;99521.34;5106079;28;20040;-69
2020/12/07 03:03:39;;;;;;;23.98;13.13;;;;;;;7.85;76.76;99526.19;5106348;28;20028;-68
2020/12/07 03:06:04;;;;;;;34.28;17.98;;;;;;;7.86;76.08;99512.41;5106380;28;20073;-68
2020/12/07 03:08:30;;;;;;;34.45;19.17;;;;;;;7.49;77.42;99516.25;5106363;28;20080;-70
2020/12/07 03:10:55;;;;;;;28.77;16.80;;;;;;;7.53;77.55;99487.78;5105923;28;20024;-68
2020/12/07 03:13:20;;;;;;;24.63;11.98;;;;;;;7.77;76.71;99488.41;5106254;28;20024;-69
2020/12/07 03:15:46;;;;;;;31.08;17.00;;;;;;;7.42;77.50;99495.66;5106235;28;20082;-72
2020/12/07 03:18:11;;;;;;;17.13;8.93;;;;;;;7.71;76.83;99491.06;5106074;28;20042;-72
2020/12/07 03:20:36;;;;;;;27.50;13.18;;;;;;;7.40;77.71;99486.19;5105831;28;20032;-71
2020/12/07 03:23:02;;;;;;;30.85;15.77;;;;;;;7.56;77.02;99494.66;5106149;28;20024;-71
2020/12/07 03:25:27;;;;;;;30.40;16.10;;;;;;;7.44;77.68;99493.06;5104589;28;20020;-73
2020/12/07 03:27:52;;;;;;;39.15;18.40;;;;;;;7.31;78.14;99492.31;5106035;28;20116;-72
2020/12/07 03:30:18;;;;;;;31.92;13.77;;;;;;;7.46;77.13;99500.78;5105736;28;20016;-73
2020/12/07 03:32:43;;;;;;;18.75;9.70;;;;;;;7.52;77.25;99488.69;5106035;28;20028;-70
2020/12/07 03:35:08;;;;;;;36.38;18.30;;;;;;;7.41;77.48;99495.69;5105648;28;20028;-71
2020/12/07 03:37:34;;;;;;;23.48;13.10;;;;;;;7.39;77.68;99503.44;5105823;28;20028;-71
2020/12/07 03:39:59;;;;;;;17.83;9.25;;;;;;;7.69;76.49;99478.16;5104913;28;20016;-69
2020/12/07 03:42:24;;;;;;;27.92;14.60;;;;;;;7.33;77.53;99503.50;5105717;28;20031;-72
2020/12/07 03:44:50;;;;;;;25.88;13.77;;;;;;;7.36;77.47;99518.09;5105754;28;20024;-71
2020/12/07 03:47:15;;;;;;;24.83;13.48;;;;;;;7.27;77.86;99504.41;5105593;28;20020;-72
2020/12/07 03:49:40;;;;;;;25.65;10.85;;;;;;;7.37;77.59;99500.00;5105383;28;20028;-72
2020/12/07 03:52:06;;;;;;;25.58;12.88;;;;;;;7.45;77.00;99479.25;5105398;28;20024;-70
2020/12/07 03:54:31;;;;;;;31.23;18.33;;;;;;;7.42;77.02;99498.25;5104085;28;20057;-72
2020/12/07 03:56:56;;;;;;;30.20;15.77;;;;;;;7.19;77.81;99490.69;5105440;28;20032;-72
2020/12/07 03:59:22;;;;;;;31.60;16.50;;;;;;;7.42;77.04;99492.22;5105205;28;20119;-72
2020/12/07 04:01:48;;;;;;;30.08;14.93;;;;;;;7.25;77.35;99494.97;5103707;28;20056;-71
2020/12/07 04:04:17;;;;;;;24.77;13.55;;;;;;;7.40;76.89;99499.97;5104966;28;20027;-73
2020/12/07 04:06:44;;;;;;;19.30;8.35;;;;;;;7.35;77.17;99493.16;5105103;28;20020;-70
2020/12/07 04:09:09;;;;;;;19.23;11.27;;;;;;;7.32;77.46;99470.78;5105122;28;20080;-71
2020/12/07 04:11:35;;;;;;;25.88;12.98;;;;;;;7.41;76.87;99486.19;5104974;28;20020;-71
2020/12/07 04:14:00;;;;;;;32.95;18.02;;;;;;;7.18;77.78;99479.53;5105000;28;20041;-70
2020/12/07 04:16:27;;;;;;;27.52;13.50;;;;;;;7.33;77.09;99495.75;5105097;28;20024;-72
2020/12/07 04:18:52;;;;;;;27.10;13.70;;;;;;;7.31;76.89;99492.31;5104573;28;20107;-72
2020/12/07 04:21:18;;;;;;;19.38;9.85;;;;;;;7.38;76.63;99486.22;5103396;28;20027;-74
2020/12/07 04:23:43;;;;;;;30.80;10.98;;;;;;;7.32;76.86;99471.66;5104949;28;20099;-71
2020/12/07 04:26:11;;;;;;;16.92;10.98;;;;;;;7.51;76.04;99486.09;5104813;28;20380;-71
2020/12/07 04:28:36;;;;;;;25.38;11.13;;;;;;;7.46;75.90;99496.47;5104865;28;20024;-72
2020/12/07 04:31:01;;;;;;;22.27;11.10;;;;;;;7.46;75.81;99480.13;5104592;28;20031;-72
2020/12/07 04:33:27;;;;;;;25.00;12.10;;;;;;;7.55;75.54;99478.31;5104549;28;20020;-71
2020/12/07 04:35:52;;;;;;;18.63;11.13;;;;;;;7.38;76.17;99470.72;5104887;28;20460;-69
2020/12/07 04:38:18;;;;;;;23.10;11.07;;;;;;;7.30;76.44;99480.28;5104591;28;20055;-71
2020/12/07 04:40:43;;;;;;;25.40;12.82;;;;;;;7.50;75.46;99484.38;5104306;28;20047;-72
2020/12/07 04:43:08;;;;;;;26.90;13.95;;;;;;;7.26;76.43;99491.50;5104555;28;20024;-72
2020/12/07 04:45:34;;;;;;;19.73;10.05;;;;;;;7.58;74.83;99469.66;5104502;28;20030;-73
2020/12/07 04:48:00;;;;;;;28.13;15.15;;;;;;;7.32;75.99;99481.97;5104279;28;20063;-74
2020/12/07 04:50:29;;;;;;;29.15;14.75;;;;;;;7.10;76.70;99489.06;5104331;28;20392;-73
2020/12/07 04:52:56;;;;;;;19.88;11.32;;;;;;;7.11;77.23;99483.03;5103867;28;20043;-72
2020/12/07 04:55:23;;;;;;;29.30;15.27;;;;;;;7.14;76.94;99469.25;5104485;28;20031;-73
2020/12/07 04:57:49;;;;;;;28.35;17.80;;;;;;;7.24;76.07;99475.16;5104376;28;20243;-71
2020/12/07 05:00:14;;;;;;;15.98;9.00;;;;;;;7.35;75.52;99446.69;5103998;28;20523;-71
2020/12/07 05:02:40;;;;;;;17.35;9.23;;;;;;;7.40;75.17;99458.66;5103932;28;20040;-69
2020/12/07 05:05:07;;;;;;;23.80;11.98;;;;;;;7.04;76.57;99450.41;5103956;28;20055;-70
2020/12/07 05:07:33;;;;;;;25.27;15.35;;;;;;;7.10;76.70;99470.13;5104299;28;20058;-74
2020/12/07 05:10:00;;;;;;;19.88;11.32;;;;;;;7.29;76.07;99447.59;5104081;28;20023;-72
2020/12/07 05:12:34;;;;;;;22.65;11.52;;;;;;;7.27;76.13;99444.16;5104014;28;20024;-70
2020/12/07 05:14:59;;;;;;;19.27;9.05;;;;;;;7.25;75.81;99464.81;5103719;28;20032;-72
2020/12/07 05:17:25;;;;;;;28.48;12.80;;;;;;;7.15;75.98;99464.06;5103951;28;20030;-68
2020/12/07 05:19:51;;;;;;;25.15;14.48;;;;;;;7.22;75.95;99466.59;5103533;28;20032;-70
2020/12/07 05:22:17;;;;;;;22.77;12.50;;;;;;;7.13;75.87;99464.94;5103788;28;20019;-73
2020/12/07 05:24:46;;;;;;;26.92;12.05;;;;;;;7.22;75.73;99461.44;5103824;28;20084;-76
2020/12/07 05:27:16;;;;;;;19.85;12.77;;;;;;;7.36;75.24;99472.47;5103940;28;20024;-67
2020/12/07 05:30:08;;;;;;;17.30;8.98;;;;;;;7.41;75.04;99462.94;5103900;28;20024;-65
2020/12/07 05:32:33;;;;;;;40.38;14.88;;;;;;;6.94;76.53;99472.84;5103269;28;20035;-72
2020/12/07 05:35:03;;;;;;;22.08;10.23;;;;;;;7.07;76.33;99497.72;5102096;28;20020;-71
2020/12/07 05:37:34;;;;;;;24.00;13.60;;;;;;;7.15;75.71;99482.16;5103927;28;20107;-71
2020/12/07 05:40:12;;;;;;;29.30;17.08;;;;;;;7.01;75.83;99455.59;5103471;28;20027;-74
2020/12/07 05:42:37;;;;;;;26.38;16.00;;;;;;;6.99;76.61;99483.13;5103865;28;20045;-73
2020/12/07 05:45:04;;;;;;;23.55;13.25;;;;;;;6.90;76.91;99490.09;5103960;28;20087;-73
2020/12/07 05:47:36;;;;;;;25.05;12.63;;;;;;;7.01;76.52;99471.94;5103901;28;20035;-71
2020/12/07 05:50:02;;;;;;;;;;;;;;;7.23;75.65;99470.88;5103987;28;20107;-73
2020/12/07 05:52:54;;;;;;;27.63;13.35;;;;;;;6.99;76.16;99496.91;5103642;28;19908;-72
2020/12/07 05:55:21;;;;;;;25.42;14.02;;;;;;;7.04;76.20;99489.13;5103733;28;20020;-74
2020/12/07 05:57:56;;;;;;;26.30;13.85;;;;;;;7.12;76.18;99468.41;5103665;28;20410;-71
2020/12/07 06:00:22;;;;;;;19.88;9.07;;;;;;;7.23;75.35;99497.56;5103386;28;20028;-74
2020/12/07 06:02:53;;;;;;;22.67;10.98;;;;;;;7.09;75.73;99484.78;5104548;28;20040;-75
2020/12/07 06:05:22;;;;;;;20.50;11.43;;;;;;;7.09;76.00;99474.47;5107423;28;20031;-74
2020/12/07 06:08:12;;;;;;;28.27;15.57;;;;;;;6.93;76.53;99484.91;5107575;28;20088;-74
2020/12/07 06:10:42;;;;;;;25.20;14.68;;;;;;;6.85;76.96;99485.84;5106111;28;20023;-74
2020/12/07 06:13:18;;;;;;;24.17;11.93;;;;;;;7.03;76.39;99471.91;5107407;28;20030;-72
2020/12/07 06:15:45;;;;;;;17.67;9.75;;;;;;;6.94;76.47;99499.53;5107496;28;20032;-78
2020/12/07 06:18:24;;;;;;;24.92;13.85;;;;;;;6.93;76.72;99487.47;5105831;28;20047;-77
2020/12/07 06:20:53;;;;;;;27.23;14.55;;;;;;;6.94;76.29;99480.59;5105692;28;20388;-72
2020/12/07 06:23:19;;;;;;;19.35;9.40;;;;;;;7.02;76.24;99486.56;5107127;28;20031;-71
2020/12/07 06:25:45;;;;;;;28.15;15.25;;;;;;;7.06;75.86;99501.13;5107353;28;20016;-73
2020/12/07 06:28:10;;;;;;;17.40;10.65;;;;;;;7.00;76.11;99500.31;5107217;28;20027;-73
2020/12/07 06:30:37;;;;;;;25.13;13.40;;;;;;;7.12;75.49;99482.19;5107349;28;20013;-73
2020/12/07 06:33:09;;;;;;;19.45;11.20;;;;;;;7.09;75.78;99499.41;5107228;28;20016;-72
2020/12/07 06:35:45;;;;;;;19.42;12.00;;;;;;;7.16;75.61;99501.06;5107253;28;20031;-72
2020/12/07 06:38:11;;;;;;;17.38;10.25;;;;;;;7.09;75.72;99484.78;5107275;28;20065;-71
2020/12/07 06:40:39;;;;;;;23.23;12.80;;;;;;;6.96;76.15;99480.59;5106878;28;20032;-72
2020/12/07 06:43:28;;;;;;;24.55;13.65;;;;;;;7.15;75.36;99468.38;5106897;28;20024;-73
2020/12/07 06:45:54;;;;;;;20.05;9.77;;;;;;;7.22;74.99;99484.66;5106944;28;20499;-72
2020/12/07 06:48:22;;;;;;;23.30;13.50;;;;;;;6.94;76.14;99485.75;5105317;28;20024;-72
2020/12/07 06:50:49;;;;;;;14.27;7.78;;;;;;;7.06;75.85;99498.56;5106742;28;20024;-72
2020/12/07 06:55:53;;;;;;;23.65;14.32;;;;;;;6.96;76.14;99485.75;5107031;28;20028;-72
2020/12/07 06:58:38;;;;;;;19.65;9.43;;;;;;;6.96;76.33;99484.03;5106766;28;20081;-72
2020/12/07 07:01:09;;;;;;;15.35;8.85;;;;;;;7.21;75.21;99475.19;5106326;28;20044;-70
2020/12/07 07:03:35;;;;;;;22.80;13.00;;;;;;;7.00;75.80;99470.22;5106518;28;20020;-73
2020/12/07 07:06:08;;;;;;;23.73;12.07;;;;;;;7.05;75.88;99475.34;5106848;28;20417;-72
2020/12/07 07:08:36;;;;;;;30.25;12.95;;;;;;;6.96;76.07;99478.00;5106834;28;20085;-72
2020/12/07 07:11:05;;;;;;;21.67;13.60;;;;;;;7.01;76.04;99465.94;5105070;28;20027;-73
2020/12/07 07:13:31;;;;;;;23.35;12.95;;;;;;;7.04;75.68;99491.72;5106255;28;20026;-72
2020/12/07 07:15:57;;;;;;;23.77;13.05;;;;;;;6.96;76.29;99478.00;5105621;28;20043;-73
2020/12/07 07:18:22;;;;;;;24.33;13.10;;;;;;;6.86;76.50;99472.94;5106324;28;20019;-72
2020/12/07 07:20:47;;;;;;;22.58;12.10;;;;;;;7.08;75.84;99488.22;5104941;28;20020;-72
2020/12/07 07:23:13;;;;;;;17.73;10.10;;;;;;;7.13;75.58;99499.38;5106135;28;20107;-73
2020/12/07 07:28:28;;;;;;;17.58;11.20;;;;;;;6.79;76.43;99481.56;5100012;28;20032;-72
2020/12/07 07:30:54;;;;;;;16.85;10.00;;;;;;;6.97;75.81;99511.53;5105803;28;20028;-73
2020/12/07 07:33:19;;;;;;;26.15;14.05;;;;;;;7.02;75.79;99490.84;5105511;28;20039;-72
2020/12/07 07:35:44;;;;;;;22.98;13.02;;;;;;;6.87;76.43;99497.00;5105842;28;20035;-73
2020/12/07 07:38:10;;;;;;;23.13;13.13;;;;;;;6.80;76.74;99491.91;5105578;28;20075;-73
2020/12/07 07:40:36;;;;;;;17.13;9.13;;;;;;;7.16;75.17;99476.09;5105757;28;20028;-75
2020/12/07 07:43:03;;;;;;;21.05;11.07;;;;;;;7.21;74.58;99475.19;5105732;28;20024;-75
2020/12/07 07:45:33;;;;;;;13.88;6.15;;;;;;;7.06;75.31;99456.44;5105774;28;20043;-73
2020/12/07 07:48:26;;;;;;;14.90;7.38;;;;;;;7.07;75.64;99477.06;5104327;28;20016;-74
2020/12/07 08:13:04;;;;;;;22.58;10.68;;;;;;;6.87;76.08;99469.47;5104756;28;20089;-73
2020/12/07 08:17:58;;;;;;;21.65;11.10;;;;;;;6.99;75.51;99453.03;5104770;28;20034;-71
2020/12/07 08:20:26;;;;;;;14.98;8.70;;;;;;;7.10;75.21;99468.41;5104230;28;20028;-69
2020/12/07 08:22:55;;;;;;;19.40;9.80;;;;;;;6.97;75.31;99461.66;5104703;28;20035;-73
2020/12/07 08:25:20;;;;;;;23.15;12.40;;;;;;;6.84;76.17;99450.59;5104458;28;20039;-73
2020/12/07 08:27:45;;;;;;;16.27;8.93;;;;;;;7.17;75.27;99446.00;5104472;28;20028;-68
2020/12/07 08:30:11;;;;;;;21.40;9.70;;;;;;;7.13;74.68;99470.97;5104522;28;20024;-74
2020/12/07 08:32:36;;;;;;;15.93;9.02;;;;;;;7.16;74.50;99475.25;5104361;28;20106;-73
2020/12/07 08:35:12;;;;;;;21.05;9.25;;;;;;;7.00;74.84;99440.97;5104290;28;20039;-73
2020/12/07 08:37:44;;;;;;;21.60;11.60;;;;;;;6.81;76.20;99472.09;5104350;28;20074;-74
2020/12/07 08:40:09;;;;;;;23.33;11.10;;;;;;;6.91;75.88;99460.84;5104004;28;20034;-73
2020/12/07 08:42:34;;;;;;;14.45;6.90;;;;;;;7.08;75.53;99472.72;5104011;28;20107;-73
2020/12/07 08:45:00;;;;;;;21.80;12.80;;;;;;;6.88;76.08;99465.19;5104235;28;20119;-73
2020/12/07 08:47:25;;;;;;;22.70;11.75;;;;;;;6.80;76.59;99468.69;5104068;28;20115;-73
2020/12/07 08:49:50;;;;;;;19.77;9.82;;;;;;;6.92;76.00;99459.09;5103622;28;20110;-73
2020/12/07 08:52:16;;;;;;;10.48;5.97;;;;;;;7.25;74.98;99449.31;5103803;28;20024;-69
2020/12/07 08:54:41;;;;;;;12.52;5.78;;;;;;;7.18;74.88;99455.44;5104144;28;20028;-71
2020/12/07 08:57:06;;;;;;;20.88;11.60;;;;;;;6.89;76.16;99467.75;5103979;28;20024;-73
2020/12/07 08:59:32;;;;;;;18.95;10.63;;;;;;;6.90;76.04;99484.09;5103697;28;20107;-73
2020/12/07 09:01:57;;;;;;;16.70;9.13;;;;;;;6.92;75.99;99475.44;5103666;28;20488;-73
2020/12/07 09:04:22;;;;;;;28.92;12.77;;;;;;;6.76;76.46;99482.47;5102275;28;20020;-73
2020/12/07 09:06:51;;;;;;;23.45;9.43;;;;;;;6.80;76.70;99475.56;5102327;28;20395;-72
2020/12/07 09:09:17;;;;;;;21.52;9.82;;;;;;;6.90;75.91;99478.94;5103761;28;20047;-73
2020/12/07 09:11:42;;;;;;;25.83;11.57;;;;;;;6.82;76.10;99486.72;5103514;28;20012;-72
2020/12/07 09:14:08;;;;;;;21.63;10.43;;;;;;;6.76;76.67;99471.28;5102196;28;20270;-72
2020/12/07 09:16:33;;;;;;;20.13;7.82;;;;;;;6.82;76.74;99472.09;5103889;28;20320;-73
2020/12/07 09:18:59;;;;;;;17.35;9.52;;;;;;;6.98;75.99;99477.13;5102043;28;20016;-69
2020/12/07 09:21:24;;;;;;;23.02;12.10;;;;;;;6.92;75.65;99483.19;5102274;28;20092;-73
2020/12/07 09:23:50;;;;;;;17.40;6.13;;;;;;;6.99;75.72;99485.72;5102250;28;20061;-72
2020/12/07 09:26:15;;;;;;;14.82;6.97;;;;;;;6.88;76.51;99480.66;5104130;28;20035;-72
2020/12/07 09:28:40;;;;;;;14.80;8.02;;;;;;;7.15;75.06;99458.91;5103522;28;20152;-68
2020/12/07 09:31:06;;;;;;;14.40;8.45;;;;;;;7.01;75.14;99482.25;5103303;28;20024;-74
2020/12/07 09:33:33;;;;;;;9.50;4.95;;;;;;;6.85;75.87;99481.53;5103452;28;20032;-72
2020/12/07 09:35:59;;;;;;;16.85;6.82;;;;;;;6.81;76.38;99478.13;5103588;28;20123;-70
2020/12/07 09:38:24;;;;;;;20.55;8.38;;;;;;;6.92;75.59;99467.72;5102996;28;20085;-68
2020/12/07 09:40:50;;;;;;;20.98;10.90;;;;;;;6.83;75.97;99488.44;5103138;28;20017;-73
2020/12/07 09:43:15;;;;;;;21.02;8.75;;;;;;;6.70;76.46;99467.03;5103211;28;20028;-69
2020/12/07 09:45:40;;;;;;;19.70;10.95;;;;;;;6.68;76.77;99507.44;5103138;28;20020;-72
2020/12/07 09:48:06;;;;;;;19.33;10.52;;;;;;;6.79;76.22;99468.66;5103086;28;20016;-74
2020/12/07 09:50:31;;;;;;;21.13;11.30;;;;;;;6.71;76.64;99468.72;5102885;28;20046;-71
2020/12/07 09:52:57;;;;;;;22.83;12.77;;;;;;;6.54;77.19;99477.47;5103264;28;20058;-74
2020/12/07 09:55:23;;;;;;;21.48;11.80;;;;;;;6.60;76.93;99479.13;5101582;28;20016;-72
2020/12/07 09:57:49;;;;;;;16.70;7.50;;;;;;;6.76;76.97;99453.22;5103221;28;20031;-69
2020/12/07 10:00:14;;;;;;;14.65;5.80;;;;;;;6.76;76.63;99471.28;5101563;28;20027;-72
2020/12/07 10:02:39;;;;;;;27.30;13.70;;;;;;;6.59;77.06;99472.28;5101419;28;20113;-73
2020/12/07 10:05:05;;;;;;;12.90;7.20;;;;;;;6.92;75.68;99466.84;5102684;28;20030;-72
2020/12/07 10:07:31;;;;;;;16.90;6.88;;;;;;;6.81;76.16;99482.41;5101601;28;20024;-72
2020/12/07 10:09:56;;;;;;;25.90;10.82;;;;;;;6.60;77.08;99480.88;5102943;28;20031;-71
2020/12/07 10:12:21;;;;;;;21.25;8.60;;;;;;;6.82;76.64;99463.50;5102769;28;20036;-69
2020/12/07 10:14:47;;;;;;;25.42;11.15;;;;;;;6.57;77.19;99481.72;5102721;28;20030;-73
2020/12/07 10:17:12;;;;;;;20.33;9.48;;;;;;;6.59;77.25;99480.00;5100582;28;20020;-71
2020/12/07 10:19:38;;;;;;;14.40;6.68;;;;;;;6.71;76.53;99483.38;5102434;28;20046;-72
2020/12/07 10:22:07;;;;;;;29.17;12.93;;;;;;;6.54;76.89;99471.44;5102834;28;20529;-72
2020/12/07 10:24:33;;;;;;;19.40;10.20;;;;;;;6.53;77.16;99480.06;5102676;28;20444;-69
2020/12/07 10:26:59;;;;;;;22.13;11.43;;;;;;;6.66;76.34;99470.50;5102810;28;20045;-70
2020/12/07 10:29:24;;;;;;;22.50;13.07;;;;;;;6.55;76.69;99480.91;5102922;28;20024;-72
2020/12/07 10:31:50;;;;;;;16.67;9.70;;;;;;;6.79;75.12;99517.69;5101399;28;20092;-73
2020/12/07 10:34:15;;;;;;;16.63;8.35;;;;;;;6.48;76.18;99482.66;5102688;28;20055;-73
2020/12/07 10:36:47;;;;;;;21.88;8.95;;;;;;;6.52;75.94;99489.50;5102847;28;20035;-72
2020/12/07 10:39:13;;;;;;;;;;;;;;;6.62;74.97;99503.19;5103910;28;20024;-72
2020/12/07 10:41:38;;;;;;;15.70;9.38;;;;;;;6.79;74.14;99497.91;5102613;28;19934;-73
2020/12/07 10:44:03;;;;;;;16.48;7.32;;;;;;;6.47;74.94;99480.94;5101283;28;20044;-71
2020/12/07 10:46:29;;;;;;;20.75;11.90;;;;;;;6.40;75.26;99479.28;5102651;28;20028;-69
2020/12/07 10:48:54;;;;;;;18.75;11.45;;;;;;;6.40;75.36;99493.03;5102831;28;20024;-72
2020/12/07 10:51:19;;;;;;;13.10;6.70;;;;;;;6.47;75.61;99498.16;5105960;28;20024;-69
2020/12/07 10:53:46;;;;;;;21.05;8.48;;;;;;;6.45;75.54;99485.25;5106503;28;20500;-68
2020/12/07 10:56:14;;;;;;;23.13;11.32;;;;;;;6.27;76.06;99496.53;5106404;28;20027;-73
2020/12/07 10:58:43;;;;;;;14.95;7.43;;;;;;;6.48;74.98;99492.13;5106304;28;20020;-72
2020/12/07 11:01:09;;;;;;;23.02;13.38;;;;;;;6.23;76.07;99482.78;5106037;28;20059;-71
2020/12/07 11:03:35;;;;;;;18.77;11.07;;;;;;;6.53;74.69;99473.16;5106365;28;20016;-69
2020/12/07 11:06:51;;;;;;;13.95;6.38;;;;;;;6.65;74.59;99477.38;5106749;28;20038;-69
2020/12/07 11:08:52;;;;;;;29.13;14.38;;;;;;;6.57;74.44;99479.16;5098837;28;20028;-72
2020/12/07 11:11:17;;;;;;;21.77;11.35;;;;;;;6.32;75.84;99477.63;5106439;28;20024;-72
2020/12/07 11:13:43;;;;;;;30.15;10.65;;;;;;;6.51;75.03;99461.16;5106240;28;20091;-72
2020/12/07 11:16:13;;;;;;;19.17;5.90;;;;;;;6.27;76.51;99468.19;5104812;28;20026;-72
2020/12/07 11:18:39;;;;;;;12.02;6.82;;;;;;;6.81;74.50;99459.19;5104381;28;20108;-69
2020/12/07 11:21:16;;;;;;;24.10;12.57;;;;;;;6.31;76.31;99470.72;5106096;28;20028;-72
2020/12/07 11:23:44;;;;;;;25.15;12.20;;;;;;;6.29;76.57;99451.81;5104655;28;20046;-72
2020/12/07 11:26:14;;;;;;;20.08;9.80;;;;;;;6.25;76.86;99454.44;5106013;28;20043;-71
2020/12/07 11:28:40;;;;;;;11.07;7.57;;;;;;;6.43;76.46;99458.63;5104531;28;20020;-75
2020/12/07 11:31:11;;;;;;;20.90;10.45;;;;;;;6.24;76.99;99460.47;5105961;28;20065;-78
2020/12/07 11:33:37;;;;;;;33.75;13.82;;;;;;;6.23;77.15;99469.06;5104396;28;20077;-75
2020/12/07 11:36:02;;;;;;;23.38;11.73;;;;;;;6.22;77.03;99457.03;5106214;28;20489;-73
2020/12/07 11:38:32;;;;;;;22.23;9.15;;;;;;;6.47;75.61;99456.88;5106035;28;20050;-72
2020/12/07 11:43:52;;;;;;;17.70;8.43;;;;;;;6.64;74.75;99467.06;5105674;28;20039;-71
2020/12/07 11:46:22;;;;;;;13.32;7.30;;;;;;;6.60;73.96;99467.97;5105756;28;20039;-77
2020/12/07 11:48:47;;;;;;;24.23;13.25;;;;;;;6.29;75.25;99467.28;5104446;28;20571;-77
2020/12/07 11:51:13;;;;;;;19.02;10.25;;;;;;;6.36;75.36;99467.28;5105499;28;20024;-75
2020/12/07 11:53:38;;;;;;;20.08;9.90;;;;;;;6.30;75.41;99460.41;5105508;28;20050;-76
2020/12/07 11:56:06;;;;;;;22.77;13.02;;;;;;;6.30;75.39;99468.16;5105451;28;20084;-78
2020/12/07 11:58:31;;;;;;;17.90;8.82;;;;;;;6.47;74.59;99465.47;5104213;28;20024;-78